createdAt,value
2023-02-27T00:01:09.335Z,-1.52
2023-02-27T00:03:37.315Z,-1.58
2023-02-27T00:06:05.855Z,-1.56
2023-02-27T00:08:33.800Z,-1.57
2023-02-27T00:11:04.301Z,-1.58
2023-02-27T00:13:32.230Z,-1.62
2023-02-27T00:16:00.217Z,-1.69
2023-02-27T00:18:28.158Z,-1.59
2023-02-27T00:20:56.133Z,-1.55
2023-02-27T00:23:24.120Z,-1.57
2023-02-27T00:25:54.848Z,-1.50
2023-02-27T00:28:24.597Z,-1.62
2023-02-27T00:30:52.530Z,-1.42
2023-02-27T00:33:20.546Z,-1.61
2023-02-27T00:35:56.322Z,-1.59
2023-02-27T00:38:24.321Z,-1.64
2023-02-27T00:40:52.276Z,-1.60
2023-02-27T00:43:20.212Z,-1.64
2023-02-27T00:45:50.247Z,-1.64
2023-02-27T00:48:18.177Z,-1.61
2023-02-27T00:50:46.072Z,-1.62
2023-02-27T00:53:13.999Z,-1.62
2023-02-27T00:55:41.903Z,-1.64
2023-02-27T00:58:09.880Z,-1.63
2023-02-27T01:00:37.903Z,-1.71
2023-02-27T01:03:07.275Z,-1.67
2023-02-27T01:05:35.203Z,-1.70
2023-02-27T01:08:03.184Z,-1.73
2023-02-27T01:10:31.177Z,-1.70
2023-02-27T01:12:59.095Z,-1.73
2023-02-27T01:15:27.034Z,-1.71
2023-02-27T01:17:54.938Z,-1.67
2023-02-27T01:20:24.235Z,-1.67
2023-02-27T01:22:52.214Z,-1.69
2023-02-27T01:25:20.305Z,-1.61
2023-02-27T01:27:48.293Z,-1.43
2023-02-27T01:30:16.869Z,-1.42
2023-02-27T01:32:44.820Z,-1.57
2023-02-27T01:35:13.118Z,-1.56
2023-02-27T01:37:42.497Z,-1.63
2023-02-27T01:40:12.709Z,-1.68
2023-02-27T01:42:40.678Z,-1.67
2023-02-27T01:45:26.352Z,-1.65
2023-02-27T01:47:58.274Z,-1.65
2023-02-27T01:50:26.515Z,-1.77
2023-02-27T01:52:58.522Z,-1.80
2023-02-27T01:55:28.439Z,-1.79
2023-02-27T01:57:56.651Z,-1.79
2023-02-27T02:00:24.928Z,-1.81
2023-02-27T02:02:57.685Z,-1.78
2023-02-27T02:05:25.626Z,-1.75
2023-02-27T02:07:55.344Z,-1.79
2023-02-27T02:10:23.817Z,-1.76
2023-02-27T02:12:51.754Z,-1.55
2023-02-27T02:15:20.604Z,-1.47
2023-02-27T02:17:57.017Z,-1.52
2023-02-27T02:20:56.581Z,-1.71
2023-02-27T02:23:46.436Z,-1.70
2023-02-27T02:26:29.224Z,-1.64
2023-02-27T02:29:29.540Z,-1.78
2023-02-27T02:32:50.963Z,-1.78
2023-02-27T02:35:57.118Z,-1.86
2023-02-27T02:38:52.888Z,-1.85
2023-02-27T02:41:25.430Z,-1.88
2023-02-27T02:44:01.970Z,-2.02
2023-02-27T02:46:33.558Z,-2.07
2023-02-27T02:49:06.550Z,-2.12
2023-02-27T02:51:37.998Z,-2.19
2023-02-27T02:54:12.558Z,-2.17
2023-02-27T02:56:42.789Z,-2.22
2023-02-27T02:59:15.111Z,-2.10
2023-02-27T03:01:44.981Z,-2.17
2023-02-27T03:04:16.707Z,-2.15
2023-02-27T03:06:47.817Z,-2.25
2023-02-27T03:09:20.425Z,-2.26
2023-02-27T03:11:50.449Z,-2.31
2023-02-27T03:14:22.187Z,-2.34
2023-02-27T03:16:53.271Z,-2.37
2023-02-27T03:19:24.385Z,-2.38
2023-02-27T03:21:55.956Z,-2.41
2023-02-27T03:24:29.673Z,-2.37
2023-02-27T03:27:02.742Z,-2.30
2023-02-27T03:29:35.080Z,-2.64
2023-02-27T03:32:06.796Z,-2.53
2023-02-27T03:34:36.313Z,-2.49
2023-02-27T03:37:08.005Z,-2.50
2023-02-27T03:39:43.732Z,-2.43
2023-02-27T03:42:16.662Z,-2.41
2023-02-27T03:44:53.560Z,-2.44
2023-02-27T03:47:21.741Z,-2.37
2023-02-27T03:49:51.395Z,-2.42
2023-02-27T03:52:20.027Z,-2.40
2023-02-27T03:54:52.942Z,-2.50
2023-02-27T03:57:21.095Z,-2.59
2023-02-27T03:59:49.036Z,-2.39
2023-02-27T04:02:17.326Z,-2.54
2023-02-27T04:04:45.255Z,-2.57
2023-02-27T04:07:24.276Z,-2.62
2023-02-27T04:10:20.312Z,-2.62
2023-02-27T04:13:14.671Z,-2.63
2023-02-27T04:15:54.945Z,-2.71
2023-02-27T04:18:31.632Z,-2.69
2023-02-27T04:21:02.256Z,-2.78
2023-02-27T04:23:35.983Z,-2.89
2023-02-27T04:26:18.836Z,-2.83
2023-02-27T04:28:51.822Z,-2.77
2023-02-27T04:31:22.700Z,-2.76
2023-02-27T04:33:53.283Z,-2.85
2023-02-27T04:36:26.128Z,-2.90
2023-02-27T04:38:58.672Z,-2.94
2023-02-27T04:41:30.390Z,-2.92
2023-02-27T04:43:58.872Z,-2.88
2023-02-27T04:46:28.667Z,-3.01
2023-02-27T04:49:00.750Z,-3.07
2023-02-27T04:51:32.898Z,-3.17
2023-02-27T04:54:03.034Z,-3.20
2023-02-27T04:56:35.509Z,-3.39
2023-02-27T04:59:05.234Z,-3.34
2023-02-27T05:01:36.714Z,-3.29
2023-02-27T05:04:05.358Z,-3.22
2023-02-27T05:06:36.522Z,-3.30
2023-02-27T05:09:11.104Z,-3.14
2023-02-27T05:11:44.732Z,-3.32
2023-02-27T05:14:15.456Z,-3.37
2023-02-27T05:16:46.637Z,-3.32
2023-02-27T05:19:14.895Z,-3.42
2023-02-27T05:21:46.969Z,-3.25
2023-02-27T05:24:22.980Z,-3.40
2023-02-27T05:27:17.888Z,-3.36
2023-02-27T05:29:49.702Z,-3.40
2023-02-27T05:32:28.895Z,-3.58
2023-02-27T05:35:01.211Z,-3.52
2023-02-27T05:37:32.476Z,-3.58
2023-02-27T05:40:02.121Z,-3.73
2023-02-27T05:42:35.110Z,-3.88
2023-02-27T05:45:08.341Z,-4.02
2023-02-27T05:47:39.141Z,-4.11
2023-02-27T05:50:10.081Z,-3.95
2023-02-27T05:52:39.155Z,-3.96
2023-02-27T05:55:11.763Z,-3.86
2023-02-27T05:57:43.890Z,-3.76
2023-02-27T06:00:17.382Z,-3.77
2023-02-27T06:02:46.137Z,-3.74
2023-02-27T06:05:15.652Z,-3.41
2023-02-27T06:07:43.623Z,-3.46
2023-02-27T06:10:13.978Z,-3.50
2023-02-27T06:12:43.452Z,-3.37
2023-02-27T06:15:12.339Z,-3.35
2023-02-27T06:17:40.428Z,-3.30
2023-02-27T06:20:10.198Z,-3.24
2023-02-27T06:22:38.355Z,-3.24
2023-02-27T06:25:07.119Z,-3.01
2023-02-27T06:27:35.217Z,-2.96
2023-02-27T06:30:07.362Z,-2.85
2023-02-27T06:32:35.350Z,-2.72
2023-02-27T06:35:03.342Z,-2.58
2023-02-27T06:37:31.251Z,-2.50
2023-02-27T06:39:59.235Z,-2.16
2023-02-27T06:42:27.189Z,-2.10
2023-02-27T06:44:56.000Z,-1.91
2023-02-27T06:47:25.534Z,-2.13
2023-02-27T06:49:53.515Z,-2.14
2023-02-27T06:52:21.519Z,-2.00
2023-02-27T06:54:49.456Z,-2.04
2023-02-27T06:57:17.508Z,-2.20
2023-02-27T06:59:45.724Z,-2.37
2023-02-27T07:02:14.752Z,-2.35
2023-02-27T07:04:44.552Z,-2.53
2023-02-27T07:07:34.079Z,-2.31
2023-02-27T07:10:00.807Z,-2.23
2023-02-27T07:12:28.804Z,-2.14
2023-02-27T07:14:56.756Z,-1.96
2023-02-27T07:17:24.832Z,-1.87
2023-02-27T07:19:54.646Z,-1.66
2023-02-27T07:22:22.717Z,-1.78
2023-02-27T07:24:50.774Z,-1.68
2023-02-27T07:27:18.729Z,-1.77
2023-02-27T07:29:46.709Z,-1.92
2023-02-27T07:32:14.664Z,-1.91
2023-02-27T07:34:42.676Z,-1.84
2023-02-27T07:37:12.326Z,-1.86
2023-02-27T07:39:40.503Z,-1.88
2023-02-27T07:42:08.521Z,-1.77
2023-02-27T07:44:36.470Z,-1.70
2023-02-27T07:47:04.828Z,-1.70
2023-02-27T07:49:32.797Z,-1.70
2023-02-27T07:52:00.722Z,-1.65
2023-02-27T07:54:30.094Z,-1.73
2023-02-27T07:56:58.028Z,-1.70
2023-02-27T07:59:26.133Z,-1.58
2023-02-27T08:01:54.116Z,-1.38
2023-02-27T08:04:22.248Z,-1.09
2023-02-27T08:06:50.170Z,-0.61
2023-02-27T08:09:18.306Z,-0.91
2023-02-27T08:11:49.104Z,-0.93
2023-02-27T08:14:17.459Z,-1.25
2023-02-27T08:16:45.499Z,-1.04
2023-02-27T08:19:13.965Z,-0.82
2023-02-27T08:21:42.076Z,-0.56
2023-02-27T08:24:10.867Z,-0.62
2023-02-27T08:26:38.833Z,-0.39
2023-02-27T08:29:08.128Z,-0.66
2023-02-27T08:31:36.330Z,-0.81
2023-02-27T08:34:10.197Z,-0.66
2023-02-27T08:36:39.007Z,-0.93
2023-02-27T08:39:07.123Z,-1.00
2023-02-27T08:41:35.481Z,-0.97
2023-02-27T08:44:03.656Z,-1.14
2023-02-27T08:46:33.063Z,-0.98
2023-02-27T08:49:01.017Z,-1.00
2023-02-27T08:51:29.240Z,-1.02
2023-02-27T08:53:59.103Z,-0.87
2023-02-27T08:56:27.561Z,-0.78
2023-02-27T08:58:56.286Z,-0.64
2023-02-27T09:01:27.269Z,-0.42
2023-02-27T09:03:56.811Z,-0.47
2023-02-27T09:06:26.338Z,-0.45
2023-02-27T09:08:54.617Z,-0.86
2023-02-27T09:11:22.858Z,-0.86
2023-02-27T09:13:51.475Z,-0.98
2023-02-27T09:16:19.657Z,-1.10
2023-02-27T09:18:47.702Z,-0.89
2023-02-27T09:21:17.453Z,-0.95
2023-02-27T09:23:45.510Z,-1.27
2023-02-27T09:26:13.715Z,-1.07
2023-02-27T09:28:41.654Z,-0.52
2023-02-27T09:31:10.107Z,-0.40
2023-02-27T09:33:39.044Z,-0.15
2023-02-27T09:36:07.754Z,-0.66
2023-02-27T09:38:38.846Z,-0.42
2023-02-27T09:41:09.095Z,-0.52
2023-02-27T09:43:41.832Z,-0.79
2023-02-27T09:46:12.632Z,-0.62
2023-02-27T09:48:45.694Z,-0.27
2023-02-27T09:51:16.136Z,-0.51
2023-02-27T09:53:47.799Z,-0.24
2023-02-27T09:56:18.697Z,0.30
2023-02-27T09:58:50.437Z,0.36
2023-02-27T10:01:22.009Z,0.16
2023-02-27T10:04:11.111Z,0.25
2023-02-27T10:06:44.075Z,0.10
2023-02-27T10:09:35.587Z,-0.18
2023-02-27T10:12:28.069Z,-0.31
2023-02-27T10:14:58.872Z,-0.43
2023-02-27T10:17:30.528Z,-0.37
2023-02-27T10:20:00.775Z,0.00
2023-02-27T10:22:31.899Z,0.21
2023-02-27T10:25:06.281Z,-0.39
2023-02-27T10:27:36.944Z,-0.07
2023-02-27T10:30:28.513Z,-0.20
2023-02-27T10:33:05.047Z,-0.27
2023-02-27T10:35:35.632Z,-0.33
2023-02-27T10:38:06.167Z,-0.34
2023-02-27T10:40:37.260Z,-0.19
2023-02-27T10:43:07.216Z,0.59
2023-02-27T10:45:37.035Z,0.94
2023-02-27T10:48:07.023Z,0.74
2023-02-27T10:50:37.353Z,0.67
2023-02-27T10:53:08.536Z,0.72
2023-02-27T10:55:39.891Z,0.92
2023-02-27T10:58:08.666Z,0.68
2023-02-27T11:00:44.269Z,0.82
2023-02-27T11:03:20.358Z,0.79
2023-02-27T11:05:55.425Z,0.45
2023-02-27T11:08:24.617Z,0.32
2023-02-27T11:10:59.782Z,0.60
2023-02-27T11:13:29.992Z,0.25
2023-02-27T11:16:08.688Z,0.46
2023-02-27T11:18:38.383Z,0.56
2023-02-27T11:21:28.643Z,0.30
2023-02-27T11:23:59.283Z,0.26
2023-02-27T11:26:33.079Z,0.43
2023-02-27T11:29:16.904Z,0.58
2023-02-27T11:31:52.230Z,0.71
2023-02-27T11:34:24.251Z,0.69
2023-02-27T11:36:56.062Z,1.02
2023-02-27T11:39:27.833Z,0.34
2023-02-27T11:42:00.490Z,0.40
2023-02-27T11:44:50.022Z,0.33
2023-02-27T11:47:21.999Z,0.47
2023-02-27T11:50:13.554Z,0.69
2023-02-27T11:52:47.783Z,0.81
2023-02-27T11:55:18.166Z,0.83
2023-02-27T11:57:48.935Z,0.62
2023-02-27T12:00:19.852Z,0.46
2023-02-27T12:02:55.263Z,0.31
2023-02-27T12:05:26.560Z,0.47
2023-02-27T12:08:06.149Z,0.57
2023-02-27T12:10:43.042Z,0.44
2023-02-27T12:13:16.704Z,0.55
2023-02-27T12:15:46.855Z,0.43
2023-02-27T12:18:18.490Z,0.28
2023-02-27T12:20:51.841Z,0.29
2023-02-27T12:23:25.604Z,0.34
2023-02-27T12:25:57.094Z,0.28
2023-02-27T12:28:34.379Z,0.44
2023-02-27T12:31:09.213Z,0.43
2023-02-27T12:33:41.892Z,0.73
2023-02-27T12:36:13.858Z,0.35
2023-02-27T12:38:41.827Z,0.36
2023-02-27T12:41:43.979Z,0.22
2023-02-27T12:44:24.350Z,0.10
2023-02-27T12:46:59.732Z,0.18
2023-02-27T12:49:36.920Z,0.48
2023-02-27T12:52:14.073Z,0.37
2023-02-27T12:54:50.853Z,0.29
2023-02-27T12:57:31.272Z,0.54
2023-02-27T13:00:12.017Z,0.50
2023-02-27T13:02:53.890Z,0.39
2023-02-27T13:05:29.651Z,0.54
2023-02-27T13:08:03.737Z,0.38
2023-02-27T13:10:36.100Z,0.07
2023-02-27T13:13:09.674Z,0.08
2023-02-27T13:15:41.813Z,0.06
2023-02-27T13:18:21.516Z,0.04
2023-02-27T13:20:52.552Z,0.23
2023-02-27T13:23:25.026Z,0.13
2023-02-27T13:25:54.037Z,0.19
2023-02-27T13:28:25.699Z,0.02
2023-02-27T13:31:08.257Z,-0.15
2023-02-27T13:33:39.644Z,0.09
2023-02-27T13:36:13.378Z,-0.01
2023-02-27T13:38:46.489Z,-0.02
2023-02-27T13:41:39.501Z,0.03
2023-02-27T13:44:50.475Z,-0.03
2023-02-27T13:47:50.154Z,0.10
2023-02-27T13:50:50.322Z,0.05
2023-02-27T13:53:22.556Z,0.01
2023-02-27T13:55:50.943Z,0.18
2023-02-27T13:58:21.837Z,0.17
2023-02-27T14:00:59.948Z,0.22
2023-02-27T14:03:30.566Z,0.09
2023-02-27T14:06:03.723Z,0.07
2023-02-27T14:08:35.874Z,0.17
2023-02-27T14:11:19.376Z,-0.07
2023-02-27T14:14:05.718Z,-0.27
2023-02-27T14:16:59.582Z,-0.07
2023-02-27T14:19:45.411Z,-0.10
2023-02-27T14:23:01.526Z,-0.14
2023-02-27T14:25:33.086Z,-0.09
2023-02-27T14:28:02.286Z,-0.17
2023-02-27T14:30:37.060Z,-0.27
2023-02-27T14:33:16.756Z,-0.27
2023-02-27T14:35:56.855Z,-0.27
2023-02-27T14:38:25.179Z,-0.21
2023-02-27T14:41:01.712Z,-0.23
2023-02-27T14:43:37.068Z,-0.18
2023-02-27T14:46:21.126Z,-0.03
2023-02-27T14:48:54.387Z,-0.15
2023-02-27T14:51:24.785Z,-0.28
2023-02-27T14:54:13.989Z,-0.34
2023-02-27T14:56:42.161Z,-0.30
2023-02-27T14:59:23.001Z,-0.34
2023-02-27T15:01:51.339Z,-0.35
2023-02-27T15:04:20.433Z,-0.35
2023-02-27T15:06:51.906Z,-0.42
2023-02-27T15:09:24.148Z,-0.38
2023-02-27T15:12:03.104Z,-0.45
2023-02-27T15:14:33.531Z,-0.54
2023-02-27T15:17:01.664Z,-0.47
2023-02-27T15:19:31.283Z,-0.50
2023-02-27T15:22:05.065Z,-0.37
2023-02-27T15:24:47.887Z,-0.41
2023-02-27T15:27:19.649Z,-0.38
2023-02-27T15:29:51.220Z,-0.35
2023-02-27T15:32:25.878Z,-0.35
2023-02-27T15:34:53.987Z,-0.41
2023-02-27T15:37:26.165Z,-0.29
2023-02-27T15:39:55.030Z,-0.37
2023-02-27T15:42:26.452Z,-0.29
2023-02-27T15:44:54.764Z,-0.28
2023-02-27T15:47:25.855Z,-0.34
2023-02-27T15:49:57.320Z,-0.16
2023-02-27T15:52:27.974Z,-0.35
2023-02-27T15:55:02.026Z,-0.40
2023-02-27T15:57:30.721Z,-0.51
2023-02-27T15:59:59.762Z,-0.57
2023-02-27T16:02:29.413Z,-0.59
2023-02-27T16:04:58.148Z,-0.67
2023-02-27T16:07:29.596Z,-0.67
2023-02-27T16:10:00.297Z,-0.71
2023-02-27T16:12:33.189Z,-0.68
2023-02-27T16:15:24.133Z,-0.72
2023-02-27T16:17:56.800Z,-0.71
2023-02-27T16:20:45.536Z,-0.71
2023-02-27T16:23:21.466Z,-0.62
2023-02-27T16:26:04.346Z,-0.66
2023-02-27T16:28:33.843Z,-0.64
2023-02-27T16:31:02.555Z,-0.73
2023-02-27T16:33:33.980Z,-0.62
2023-02-27T16:36:15.861Z,-0.65
2023-02-27T16:38:45.169Z,-0.78
2023-02-27T16:41:15.916Z,-0.65
2023-02-27T16:43:44.956Z,-0.71
2023-02-27T16:46:15.778Z,-0.73
2023-02-27T16:48:43.947Z,-0.74
2023-02-27T16:51:17.636Z,-0.70
2023-02-27T16:53:48.134Z,-0.77
2023-02-27T16:56:18.153Z,-0.79
2023-02-27T16:58:48.056Z,-0.77
2023-02-27T17:01:16.298Z,-0.70
2023-02-27T17:03:45.888Z,-0.64
2023-02-27T17:06:14.881Z,-0.71
2023-02-27T17:08:44.009Z,-0.89
2023-02-27T17:11:13.408Z,-0.91
2023-02-27T17:13:41.396Z,-0.82
2023-02-27T17:16:09.568Z,-0.92
2023-02-27T17:18:38.144Z,-1.02
2023-02-27T17:21:06.271Z,-0.78
2023-02-27T17:23:35.315Z,-0.88
2023-02-27T17:26:03.267Z,-0.89
2023-02-27T17:28:32.894Z,-0.79
2023-02-27T17:31:02.666Z,-0.93
2023-02-27T17:33:32.366Z,-0.81
2023-02-27T17:36:03.856Z,-0.95
2023-02-27T17:38:31.878Z,-0.74
2023-02-27T17:40:59.791Z,-0.73
2023-02-27T17:43:28.226Z,-0.81
2023-02-27T17:45:57.828Z,-0.76
2023-02-27T17:48:25.839Z,-0.88
2023-02-27T17:50:53.850Z,-0.84
2023-02-27T17:53:21.751Z,-0.85
2023-02-27T17:55:49.685Z,-0.87
2023-02-27T17:58:18.789Z,-0.77
2023-02-27T18:00:46.751Z,-0.73
2023-02-27T18:03:16.731Z,-0.89
2023-02-27T18:05:49.373Z,-0.91
2023-02-27T18:08:17.309Z,-0.77
2023-02-27T18:10:48.809Z,-0.69
2023-02-27T18:13:17.693Z,-0.78
2023-02-27T18:15:45.934Z,-0.74
2023-02-27T18:18:15.619Z,-0.47
2023-02-27T18:20:43.612Z,-0.61
2023-02-27T18:23:11.768Z,-0.63
2023-02-27T18:25:39.991Z,-0.78
2023-02-27T18:28:08.974Z,-0.49
2023-02-27T18:30:38.899Z,-0.73
2023-02-27T18:33:06.828Z,-0.77
2023-02-27T18:35:36.282Z,-0.90
2023-02-27T18:38:04.242Z,-0.92
2023-02-27T18:40:32.217Z,-0.97
2023-02-27T18:43:00.128Z,-1.05
2023-02-27T18:45:29.606Z,-1.02
2023-02-27T18:47:57.867Z,-1.07
2023-02-27T18:50:26.384Z,-1.08
2023-02-27T18:52:56.394Z,-1.14
2023-02-27T18:55:24.320Z,-1.10
2023-02-27T18:57:52.243Z,-1.14
2023-02-27T19:00:21.699Z,-1.11
2023-02-27T19:02:51.053Z,-1.16
2023-02-27T19:05:19.298Z,-1.20
2023-02-27T19:07:47.466Z,-1.22
2023-02-27T19:10:17.022Z,-1.10
2023-02-27T19:12:44.999Z,-1.07
2023-02-27T19:15:13.151Z,-1.14
2023-02-27T19:17:41.022Z,-1.14
2023-02-27T19:20:14.382Z,-1.16
2023-02-27T19:22:42.341Z,-1.09
2023-02-27T19:25:10.510Z,-1.07
2023-02-27T19:27:40.548Z,-1.12
2023-02-27T19:30:10.590Z,-1.15
2023-02-27T19:32:38.506Z,-1.13
2023-02-27T19:35:07.424Z,-1.21
2023-02-27T19:37:35.319Z,-1.16
2023-02-27T19:40:04.053Z,-1.10
2023-02-27T19:42:31.990Z,-1.15
2023-02-27T19:45:01.301Z,-1.07
2023-02-27T19:47:29.197Z,-1.13
2023-02-27T19:49:57.170Z,-1.18
2023-02-27T19:52:25.142Z,-1.25
2023-02-27T19:54:53.069Z,-1.23
2023-02-27T19:57:22.062Z,-1.14
2023-02-27T19:59:50.129Z,-1.15
2023-02-27T20:02:19.390Z,-1.16
2023-02-27T20:04:47.329Z,-1.03
2023-02-27T20:07:18.954Z,-1.18
2023-02-27T20:09:46.902Z,-1.25
2023-02-27T20:12:14.859Z,-1.24
2023-02-27T20:14:42.768Z,-1.13
2023-02-27T20:17:11.131Z,-1.15
2023-02-27T20:19:40.453Z,-1.23
2023-02-27T20:22:08.354Z,-1.35
2023-02-27T20:24:36.335Z,-1.30
2023-02-27T20:27:04.265Z,-1.29
2023-02-27T20:29:32.155Z,-1.32
2023-02-27T20:32:00.437Z,-1.31
2023-02-27T20:34:28.605Z,-1.27
2023-02-27T20:36:58.275Z,-1.36
2023-02-27T20:39:27.953Z,-1.37
2023-02-27T20:41:55.968Z,-1.36
2023-02-27T20:44:23.916Z,-1.29
2023-02-27T20:46:51.855Z,-1.37
2023-02-27T20:49:19.775Z,-1.38
2023-02-27T20:51:47.887Z,-1.48
2023-02-27T20:54:20.501Z,-1.39
2023-02-27T20:56:51.901Z,-1.43
2023-02-27T20:59:21.441Z,-1.38
2023-02-27T21:01:52.384Z,-1.39
2023-02-27T21:04:21.867Z,-1.40
2023-02-27T21:06:49.929Z,-1.38
2023-02-27T21:09:19.677Z,-1.37
2023-02-27T21:11:47.648Z,-1.35
2023-02-27T21:14:15.603Z,-1.35
2023-02-27T21:16:43.570Z,-1.36
2023-02-27T21:19:11.491Z,-1.41
2023-02-27T21:21:39.425Z,-1.50
2023-02-27T21:24:08.064Z,-1.47
2023-02-27T21:26:38.962Z,-1.43
2023-02-27T21:29:09.013Z,-1.54
2023-02-27T21:31:38.540Z,-1.55
2023-02-27T21:34:08.159Z,-1.56
2023-02-27T21:36:38.277Z,-1.51
2023-02-27T21:39:08.376Z,-1.51
2023-02-27T21:41:38.316Z,-1.52
2023-02-27T21:44:08.236Z,-1.53
2023-02-27T21:46:36.349Z,-1.51
2023-02-27T21:49:04.963Z,-1.49
2023-02-27T21:51:40.561Z,-1.43
2023-02-27T21:54:11.160Z,-1.38
2023-02-27T21:56:41.174Z,-1.46
2023-02-27T21:59:09.373Z,-1.46
2023-02-27T22:01:37.987Z,-1.54
2023-02-27T22:04:06.657Z,-1.43
2023-02-27T22:06:35.709Z,-1.50
2023-02-27T22:09:05.523Z,-1.52
2023-02-27T22:11:35.275Z,-1.52
2023-02-27T22:14:05.559Z,-1.49
2023-02-27T22:16:33.520Z,-1.52
2023-02-27T22:19:06.073Z,-1.53
2023-02-27T22:21:34.012Z,-1.49
2023-02-27T22:24:01.964Z,-1.48
2023-02-27T22:26:30.845Z,-1.58
2023-02-27T22:29:00.147Z,-1.50
2023-02-27T22:31:31.435Z,-1.53
2023-02-27T22:34:01.763Z,-1.59
2023-02-27T22:36:31.061Z,-1.60
2023-02-27T22:38:59.469Z,-1.66
2023-02-27T22:41:29.097Z,-1.63
2023-02-27T22:43:57.361Z,-1.59
2023-02-27T22:46:28.189Z,-1.62
2023-02-27T22:48:58.485Z,-1.60
2023-02-27T22:51:28.481Z,-1.61
2023-02-27T22:53:57.650Z,-1.64
2023-02-27T22:56:25.820Z,-1.64
2023-02-27T22:58:54.298Z,-1.65
2023-02-27T23:01:23.716Z,-1.64
2023-02-27T23:03:53.198Z,-1.67
2023-02-27T23:06:23.949Z,-1.69
2023-02-27T23:08:52.030Z,-1.68
2023-02-27T23:11:20.973Z,-1.74
2023-02-27T23:13:49.103Z,-1.68
2023-02-27T23:16:17.580Z,-1.66
2023-02-27T23:18:47.199Z,-1.61
2023-02-27T23:21:15.944Z,-1.67
2023-02-27T23:23:45.814Z,-1.71
2023-02-27T23:26:14.108Z,-1.76
2023-02-27T23:28:42.136Z,-1.78
2023-02-27T23:31:10.346Z,-1.76
2023-02-27T23:33:38.531Z,-1.80
2023-02-27T23:36:07.201Z,-1.79
2023-02-27T23:38:35.186Z,-1.84
2023-02-27T23:41:08.222Z,-1.81
2023-02-27T23:43:36.556Z,-1.84
2023-02-27T23:46:08.302Z,-1.84
2023-02-27T23:48:36.799Z,-1.89
2023-02-27T23:51:06.021Z,-1.95
2023-02-27T23:53:34.666Z,-1.94
2023-02-27T23:56:03.532Z,-1.82
2023-02-27T23:58:32.829Z,-1.95
